createdAt,value
2019-02-28T00:00:25.943Z,1016.5
2019-02-28T00:01:43.142Z,1016.5
2019-02-28T00:02:55.951Z,1016.46
2019-02-28T00:04:05.648Z,1016.48
2019-02-28T00:05:15.088Z,1016.49
2019-02-28T00:06:25.027Z,1016.47
2019-02-28T00:07:34.467Z,1016.52
2019-02-28T00:08:43.920Z,1016.47
2019-02-28T00:09:58.481Z,1016.47
2019-02-28T00:11:08.440Z,1016.45
2019-02-28T00:14:12.414Z,1016.38
2019-02-28T00:15:22.100Z,1016.37
2019-02-28T00:16:35.602Z,1016.33
2019-02-28T00:17:46.279Z,1016.24
2019-02-28T00:18:55.968Z,1016.24
2019-02-28T00:20:05.405Z,1016.23
2019-02-28T00:21:15.097Z,1016.21
2019-02-28T00:22:24.813Z,1016.19
2019-02-28T00:23:34.492Z,1016.19
2019-02-28T00:24:44.180Z,1016.12
2019-02-28T00:25:54.133Z,1016.12
2019-02-28T00:27:03.818Z,1016.12
2019-02-28T00:28:13.519Z,1016.11
2019-02-28T00:29:33.304Z,1016.11
2019-02-28T00:30:43.098Z,1016.06
2019-02-28T00:31:52.536Z,1016.02
2019-02-28T00:33:02.531Z,1016.02
2019-02-28T00:34:11.471Z,1016.04
2019-02-28T00:35:21.155Z,1016.04
2019-02-28T00:36:30.859Z,1016.07
2019-02-28T00:37:40.305Z,1016.03
2019-02-28T00:38:49.744Z,1016.03
2019-02-28T00:40:06.564Z,1016.05
2019-02-28T00:41:16.686Z,1016.05
2019-02-28T00:42:26.371Z,1015.99
2019-02-28T00:43:35.819Z,1016.04
2019-02-28T00:44:45.514Z,1015.98
2019-02-28T00:45:55.457Z,1015.98
2019-02-28T00:47:10.254Z,1015.98
2019-02-28T00:48:22.314Z,1016.03
2019-02-28T00:49:32.081Z,1015.99
2019-02-28T00:50:42.020Z,1016.02
2019-02-28T00:51:51.206Z,1016.02
2019-02-28T00:53:06.350Z,1015.98
2019-02-28T00:54:17.190Z,1015.97
2019-02-28T00:55:27.135Z,1015.97
2019-02-28T00:56:36.827Z,1015.99
2019-02-28T00:57:52.141Z,1015.93
2019-02-28T00:59:03.279Z,1015.95
2019-02-28T01:00:13.215Z,1015.92
2019-02-28T01:01:23.171Z,1015.91
2019-02-28T01:02:32.613Z,1015.88
2019-02-28T01:03:42.058Z,1015.9
2019-02-28T01:04:52.003Z,1015.91
2019-02-28T01:06:09.496Z,1015.92
2019-02-28T01:07:19.755Z,1015.89
2019-02-28T01:08:29.189Z,1015.89
2019-02-28T01:09:38.887Z,1015.87
2019-02-28T01:10:48.831Z,1015.88
2019-02-28T01:11:58.535Z,1015.89
2019-02-28T01:13:08.555Z,1015.87
2019-02-28T01:14:18.490Z,1015.89
2019-02-28T01:15:28.491Z,1015.84
2019-02-28T01:16:37.938Z,1015.79
2019-02-28T01:17:53.260Z,1015.83
2019-02-28T01:19:09.021Z,1015.78
2019-02-28T01:20:19.337Z,1015.77
2019-02-28T01:21:29.026Z,1015.7
2019-02-28T01:22:38.723Z,1015.72
2019-02-28T01:23:48.415Z,1015.63
2019-02-28T01:25:01.014Z,1015.6
2019-02-28T01:26:14.122Z,1015.59
2019-02-28T01:27:23.812Z,1015.54
2019-02-28T01:28:33.005Z,1015.56
2019-02-28T01:29:42.718Z,1015.59
2019-02-28T01:30:52.403Z,1015.53
2019-02-28T01:32:02.100Z,1015.53
2019-02-28T01:33:16.028Z,1015.49
2019-02-28T01:34:33.039Z,1015.48
2019-02-28T01:35:42.543Z,1015.45
2019-02-28T01:36:52.238Z,1015.42
2019-02-28T01:38:01.925Z,1015.45
2019-02-28T01:39:11.129Z,1015.41
2019-02-28T01:40:20.814Z,1015.43
2019-02-28T01:41:30.518Z,1015.37
2019-02-28T01:42:45.361Z,1015.38
2019-02-28T01:44:01.594Z,1015.33
2019-02-28T01:45:11.511Z,1015.3
2019-02-28T01:46:21.484Z,1015.29
2019-02-28T01:47:30.913Z,1015.28
2019-02-28T01:48:40.107Z,1015.24
2019-02-28T01:49:50.053Z,1015.18
2019-02-28T01:51:03.052Z,1015.18
2019-02-28T01:52:13.057Z,1015.11
2019-02-28T01:53:24.406Z,1015.12
2019-02-28T01:54:34.139Z,1015.11
2019-02-28T01:55:44.084Z,1015.12
2019-02-28T01:56:53.787Z,1015.16
2019-02-28T01:58:03.478Z,1015.11
2019-02-28T01:59:17.144Z,1015.08
2019-02-28T02:00:29.528Z,1015.03
2019-02-28T02:01:39.211Z,1015.04
2019-02-28T02:02:48.898Z,1015.04
2019-02-28T02:03:58.842Z,1015.05
2019-02-28T02:05:08.533Z,1015.01
2019-02-28T02:06:22.453Z,1014.96
2019-02-28T02:07:34.938Z,1014.97
2019-02-28T02:08:44.895Z,1014.94
2019-02-28T02:09:54.590Z,1014.92
2019-02-28T02:11:04.552Z,1014.95
2019-02-28T02:12:13.993Z,1014.95
2019-02-28T02:13:23.429Z,1014.94
2019-02-28T02:14:37.219Z,1014.92
2019-02-28T02:15:51.226Z,1014.82
2019-02-28T02:17:01.946Z,1014.78
2019-02-28T02:18:11.699Z,1014.79
2019-02-28T02:19:21.661Z,1014.77
2019-02-28T02:20:31.594Z,1014.73
2019-02-28T02:21:41.540Z,1014.73
2019-02-28T02:22:51.238Z,1014.71
2019-02-28T02:24:01.175Z,1014.73
2019-02-28T02:25:11.135Z,1014.67
2019-02-28T02:26:20.332Z,1014.72
2019-02-28T02:27:30.279Z,1014.72
2019-02-28T02:28:39.962Z,1014.77
2019-02-28T02:29:49.915Z,1014.76
2019-02-28T02:30:59.619Z,1014.8
2019-02-28T02:32:09.340Z,1014.79
2019-02-28T02:33:19.327Z,1014.73
2019-02-28T02:34:29.679Z,1014.74
2019-02-28T02:35:42.549Z,1014.69
2019-02-28T02:36:54.507Z,1014.76
2019-02-28T02:38:04.819Z,1014.74
2019-02-28T02:39:17.472Z,1014.73
2019-02-28T02:40:27.457Z,1014.7
2019-02-28T02:41:37.425Z,1014.67
2019-02-28T02:42:48.344Z,1014.63
2019-02-28T02:43:59.406Z,1014.61
2019-02-28T02:45:09.136Z,1014.58
2019-02-28T02:46:20.130Z,1014.56
2019-02-28T02:47:32.295Z,1014.57
2019-02-28T02:48:42.239Z,1014.58
2019-02-28T02:49:57.383Z,1014.55
2019-02-28T02:51:10.979Z,1014.56
2019-02-28T02:52:25.959Z,1014.54
2019-02-28T02:53:41.852Z,1014.52
2019-02-28T02:54:53.013Z,1014.54
2019-02-28T02:56:04.835Z,1014.55
2019-02-28T02:57:15.720Z,1014.5
2019-02-28T02:58:27.734Z,1014.46
2019-02-28T02:59:39.248Z,1014.44
2019-02-28T03:00:51.084Z,1014.38
2019-02-28T03:02:00.857Z,1014.37
2019-02-28T03:03:10.323Z,1014.34
2019-02-28T03:04:22.819Z,1014.3
2019-02-28T03:05:35.621Z,1014.28
2019-02-28T03:06:46.817Z,1014.22
2019-02-28T03:07:59.759Z,1014.2
2019-02-28T03:09:11.179Z,1014.15
2019-02-28T03:10:21.277Z,1014.14
2019-02-28T03:11:31.218Z,1014.12
2019-02-28T03:12:40.694Z,1014.1
2019-02-28T03:13:50.649Z,1014.14
2019-02-28T03:15:00.589Z,1014.06
2019-02-28T03:16:10.302Z,1014.1
2019-02-28T03:17:20.253Z,1014.08
2019-02-28T03:18:29.967Z,1014.07
2019-02-28T03:19:39.913Z,1014.03
2019-02-28T03:20:49.870Z,1014.07
2019-02-28T03:21:59.812Z,1014.12
2019-02-28T03:23:09.816Z,1014.12
2019-02-28T03:24:19.295Z,1014.13
2019-02-28T03:25:29.118Z,1014.06
2019-02-28T03:26:41.822Z,1014.07
2019-02-28T03:27:56.275Z,1014.1
2019-02-28T03:29:07.814Z,1014.05
2019-02-28T03:30:28.246Z,1014.08
2019-02-28T03:31:41.571Z,1014.08
2019-02-28T03:33:05.065Z,1014.11
2019-02-28T03:34:31.710Z,1014.18
2019-02-28T03:35:44.051Z,1014.11
2019-02-28T03:36:56.854Z,1014.13
2019-02-28T03:38:11.233Z,1014.1
2019-02-28T03:39:24.482Z,1014.1
2019-02-28T03:40:39.704Z,1014.09
2019-02-28T03:41:52.832Z,1014.12
2019-02-28T03:43:06.607Z,1014.13
2019-02-28T03:44:21.227Z,1014.14
2019-02-28T03:45:34.990Z,1014.15
2019-02-28T03:46:46.678Z,1014.13
2019-02-28T03:47:58.685Z,1014.17
2019-02-28T03:49:11.380Z,1014.13
2019-02-28T03:50:23.134Z,1014.14
2019-02-28T03:51:33.187Z,1014.1
2019-02-28T03:52:44.620Z,1014.13
2019-02-28T03:53:55.909Z,1014.13
2019-02-28T03:55:06.551Z,1014.15
2019-02-28T03:56:16.153Z,1014.21
2019-02-28T03:57:29.286Z,1014.19
2019-02-28T03:58:42.741Z,1014.25
2019-02-28T03:59:56.625Z,1014.21
2019-02-28T04:01:09.288Z,1014.3
2019-02-28T04:02:22.104Z,1014.31
2019-02-28T04:03:33.676Z,1014.31
2019-02-28T04:04:48.383Z,1014.29
2019-02-28T04:06:02.852Z,1014.26
2019-02-28T04:07:15.946Z,1014.31
2019-02-28T04:08:30.328Z,1014.34
2019-02-28T04:09:44.108Z,1014.36
2019-02-28T04:10:55.885Z,1014.38
2019-02-28T04:12:08.484Z,1014.33
2019-02-28T04:13:19.474Z,1014.33
2019-02-28T04:14:32.987Z,1014.29
2019-02-28T04:15:56.110Z,1014.23
2019-02-28T04:17:17.735Z,1014.27
2019-02-28T04:18:33.086Z,1014.25
2019-02-28T04:19:49.773Z,1014.2
2019-02-28T04:21:10.125Z,1014.21
2019-02-28T04:22:22.998Z,1014.17
2019-02-28T04:23:35.913Z,1014.13
2019-02-28T04:24:47.718Z,1014.09
2019-02-28T04:25:57.914Z,1014.06
2019-02-28T04:27:08.079Z,1014.08
2019-02-28T04:28:19.020Z,1014.02
2019-02-28T04:29:31.100Z,1014.03
2019-02-28T04:30:43.668Z,1014.06
2019-02-28T04:31:53.941Z,1014.04
2019-02-28T04:33:05.461Z,1014.04
2019-02-28T04:34:15.465Z,1013.99
2019-02-28T04:35:25.475Z,1014.01
2019-02-28T04:36:35.675Z,1014.07
2019-02-28T04:37:47.249Z,1014.13
2019-02-28T04:38:57.084Z,1014.15
2019-02-28T04:40:06.608Z,1014.2
2019-02-28T04:41:16.300Z,1014.29
2019-02-28T04:42:26.246Z,1014.27
2019-02-28T04:43:36.964Z,1014.28
2019-02-28T04:44:51.908Z,1014.29
2019-02-28T04:46:01.806Z,1014.22
2019-02-28T04:47:11.499Z,1014.19
2019-02-28T04:48:21.197Z,1014.2
2019-02-28T04:49:30.929Z,1014.17
2019-02-28T04:50:40.641Z,1014.11
2019-02-28T04:51:50.576Z,1014.04
2019-02-28T04:53:00.283Z,1014.04
2019-02-28T04:54:10.012Z,1014.07
2019-02-28T04:55:19.693Z,1014.12
2019-02-28T04:56:31.162Z,1014.13
2019-02-28T04:57:45.672Z,1014.11
2019-02-28T04:58:59.483Z,1014.06
2019-02-28T05:00:10.266Z,1014.08
2019-02-28T05:01:19.955Z,1014.04
2019-02-28T05:02:29.187Z,1013.99
2019-02-28T05:03:38.380Z,1014.05
2019-02-28T05:04:48.084Z,1014.07
2019-02-28T05:05:57.786Z,1014.13
2019-02-28T05:07:07.253Z,1014.13
2019-02-28T05:08:17.191Z,1014.15
2019-02-28T05:09:26.641Z,1014.11
2019-02-28T05:10:36.589Z,1014.06
2019-02-28T05:11:46.299Z,1014.05
2019-02-28T05:12:55.759Z,1014.06
2019-02-28T05:14:05.449Z,1014.06
2019-02-28T05:15:15.387Z,1014.09
2019-02-28T05:16:24.597Z,1014.1
2019-02-28T05:17:34.309Z,1014.07
2019-02-28T05:18:43.992Z,1014.11
2019-02-28T05:19:55.089Z,1014.13
2019-02-28T05:21:04.627Z,1014.18
2019-02-28T05:22:19.577Z,1014.17
2019-02-28T05:23:35.912Z,1014.24
2019-02-28T05:24:45.451Z,1014.2
2019-02-28T05:25:55.402Z,1014.18
2019-02-28T05:27:05.351Z,1014.16
2019-02-28T05:28:15.067Z,1014.15
2019-02-28T05:29:24.545Z,1014.14
2019-02-28T05:30:34.480Z,1014.19
2019-02-28T05:31:44.438Z,1014.18
2019-02-28T05:32:54.372Z,1014.19
2019-02-28T05:34:06.927Z,1014.2
2019-02-28T05:35:25.096Z,1014.19
2019-02-28T05:36:37.795Z,1014.16
2019-02-28T05:37:48.651Z,1014.15
2019-02-28T05:38:58.607Z,1014.12
2019-02-28T05:40:08.550Z,1014.1
2019-02-28T05:41:18.502Z,1014
2019-02-28T05:42:28.194Z,1014.01
2019-02-28T05:43:37.642Z,1014.01
2019-02-28T05:44:47.083Z,1014.03
2019-02-28T05:45:57.051Z,1014.01
2019-02-28T05:47:07.072Z,1014.02
2019-02-28T05:48:16.765Z,1014
2019-02-28T05:49:26.478Z,1013.96
2019-02-28T05:50:36.410Z,1013.96
2019-02-28T05:51:47.463Z,1013.99
2019-02-28T05:53:02.961Z,1014.06
2019-02-28T05:54:17.193Z,1014.02
2019-02-28T05:55:26.762Z,1014.02
2019-02-28T05:56:37.771Z,1014
2019-02-28T05:57:47.468Z,1014
2019-02-28T05:58:57.402Z,1014.03
2019-02-28T06:00:07.372Z,1014
2019-02-28T06:01:17.186Z,1013.98
2019-02-28T06:02:26.867Z,1013.98
2019-02-28T06:03:36.582Z,1013.94
2019-02-28T06:04:46.271Z,1013.95
2019-02-28T06:05:55.459Z,1013.91
2019-02-28T06:07:05.397Z,1013.94
2019-02-28T06:08:16.812Z,1013.92
2019-02-28T06:09:26.527Z,1013.92
2019-02-28T06:10:35.744Z,1013.91
2019-02-28T06:11:44.957Z,1013.9
2019-02-28T06:12:54.655Z,1013.92
2019-02-28T06:14:04.602Z,1013.92
2019-02-28T06:15:14.349Z,1013.95
2019-02-28T06:16:24.292Z,1013.97
2019-02-28T06:17:33.982Z,1014.01
2019-02-28T06:18:44.032Z,1014.01
2019-02-28T06:19:53.966Z,1014.01
2019-02-28T06:21:03.925Z,1014.02
2019-02-28T06:22:15.514Z,1014.02
2019-02-28T06:23:25.254Z,1013.99
2019-02-28T06:24:35.198Z,1014.06
2019-02-28T06:25:47.531Z,1014.08
2019-02-28T06:27:03.613Z,1014.07
2019-02-28T06:28:15.989Z,1014.09
2019-02-28T06:29:32.531Z,1014.15
2019-02-28T06:30:44.532Z,1014.1
2019-02-28T06:31:54.464Z,1014.12
2019-02-28T06:33:04.156Z,1014.12
2019-02-28T06:34:13.591Z,1014.14
2019-02-28T06:35:22.785Z,1014.18
2019-02-28T06:36:32.475Z,1014.19
2019-02-28T06:37:42.167Z,1014.17
2019-02-28T06:38:54.530Z,1014.21
2019-02-28T06:40:04.618Z,1014.26
2019-02-28T06:41:14.303Z,1014.21
2019-02-28T06:42:24.246Z,1014.26
2019-02-28T06:43:33.936Z,1014.22
2019-02-28T06:44:44.812Z,1014.17
2019-02-28T06:45:54.501Z,1014.2
2019-02-28T06:47:04.249Z,1014.16
2019-02-28T06:48:20.353Z,1014.23
2019-02-28T06:49:40.766Z,1014.23
2019-02-28T06:50:50.733Z,1014.25
2019-02-28T06:52:00.444Z,1014.29
2019-02-28T06:53:09.885Z,1014.33
2019-02-28T06:54:19.822Z,1014.31
2019-02-28T06:55:29.513Z,1014.3
2019-02-28T06:56:39.211Z,1014.32
2019-02-28T06:57:48.916Z,1014.33
2019-02-28T06:59:04.868Z,1014.29
2019-02-28T07:00:14.828Z,1014.28
2019-02-28T07:01:24.788Z,1014.25
2019-02-28T07:02:34.617Z,1014.26
2019-02-28T07:03:53.071Z,1014.29
2019-02-28T07:05:03.494Z,1014.28
2019-02-28T07:06:12.954Z,1014.26
2019-02-28T07:07:22.668Z,1014.26
2019-02-28T07:08:32.624Z,1014.19
2019-02-28T07:09:42.305Z,1014.22
2019-02-28T07:10:51.748Z,1014.2
2019-02-28T07:12:01.680Z,1014.17
2019-02-28T07:13:13.730Z,1014.16
2019-02-28T07:14:23.429Z,1014.11
2019-02-28T07:15:33.491Z,1014.11
2019-02-28T07:16:43.307Z,1014.05
2019-02-28T07:17:53.020Z,1014.04
2019-02-28T07:19:02.469Z,1014.06
2019-02-28T07:20:12.168Z,1014.08
2019-02-28T07:21:21.864Z,1014.09
2019-02-28T07:22:31.582Z,1014.08
2019-02-28T07:23:43.014Z,1014.06
2019-02-28T07:24:53.806Z,1014.11
2019-02-28T07:26:03.771Z,1014.12
2019-02-28T07:27:13.733Z,1014.17
2019-02-28T07:28:27.716Z,1014.11
2019-02-28T07:29:42.636Z,1014.18
2019-02-28T07:30:52.310Z,1014.18
2019-02-28T07:32:02.015Z,1014.21
2019-02-28T07:33:11.969Z,1014.27
2019-02-28T07:34:23.753Z,1014.24
2019-02-28T07:35:36.145Z,1014.21
2019-02-28T07:36:46.682Z,1014.24
2019-02-28T07:37:56.371Z,1014.3
2019-02-28T07:39:05.831Z,1014.32
2019-02-28T07:40:16.910Z,1014.27
2019-02-28T07:41:27.518Z,1014.26
2019-02-28T07:42:38.320Z,1014.19
2019-02-28T07:43:48.252Z,1014.16
2019-02-28T07:44:59.500Z,1014.12
2019-02-28T07:46:09.196Z,1014.1
2019-02-28T07:47:18.886Z,1014.06
2019-02-28T07:48:30.414Z,1014.07
2019-02-28T07:49:40.432Z,1014.06
2019-02-28T07:50:50.788Z,1014.04
2019-02-28T07:52:02.134Z,1014.08
2019-02-28T07:53:11.822Z,1014.08
2019-02-28T07:54:21.542Z,1014.04
2019-02-28T07:55:31.905Z,1014.04
2019-02-28T07:56:43.054Z,1014.07
2019-02-28T07:57:56.346Z,1014.03
2019-02-28T07:59:06.520Z,1014.07
2019-02-28T08:00:18.084Z,1014.02
2019-02-28T08:01:28.551Z,1014.01
2019-02-28T08:02:39.119Z,1014
2019-02-28T08:03:49.271Z,1013.97
2019-02-28T08:04:59.224Z,1013.95
2019-02-28T08:06:10.657Z,1013.97
2019-02-28T08:07:20.366Z,1013.98
2019-02-28T08:08:30.324Z,1013.97
2019-02-28T08:09:40.557Z,1013.97
2019-02-28T08:10:50.778Z,1013.99
2019-02-28T08:12:00.478Z,1013.96
2019-02-28T08:13:12.664Z,1014.02
2019-02-28T08:14:22.624Z,1014.03
2019-02-28T08:15:32.342Z,1014.09
2019-02-28T08:16:42.036Z,1014.08
2019-02-28T08:17:51.488Z,1014.1
2019-02-28T08:19:00.942Z,1014.12
2019-02-28T08:20:10.639Z,1014.11
2019-02-28T08:21:20.570Z,1014.1
2019-02-28T08:22:31.312Z,1014.15
2019-02-28T08:23:40.832Z,1014.18
2019-02-28T08:24:52.057Z,1014.23
2019-02-28T08:26:02.057Z,1014.25
2019-02-28T08:27:11.765Z,1014.3
2019-02-28T08:28:21.726Z,1014.32
2019-02-28T08:29:36.397Z,1014.28
2019-02-28T08:30:54.708Z,1014.29
2019-02-28T08:32:07.791Z,1014.31
2019-02-28T08:33:18.010Z,1014.33
2019-02-28T08:34:27.962Z,1014.32
2019-02-28T08:35:37.662Z,1014.32
2019-02-28T08:36:47.621Z,1014.34
2019-02-28T08:37:57.584Z,1014.34
2019-02-28T08:39:09.757Z,1014.34
2019-02-28T08:40:21.592Z,1014.31
2019-02-28T08:41:34.280Z,1014.23
2019-02-28T08:42:43.978Z,1014.24
2019-02-28T08:43:55.015Z,1014.26
2019-02-28T08:45:04.978Z,1014.22
2019-02-28T08:46:16.111Z,1014.25
2019-02-28T08:47:26.065Z,1014.3
2019-02-28T08:48:36.020Z,1014.3
2019-02-28T08:49:45.631Z,1014.31
2019-02-28T08:50:55.723Z,1014.34
2019-02-28T08:52:06.695Z,1014.36
2019-02-28T08:53:16.709Z,1014.34
2019-02-28T08:54:27.616Z,1014.33
2019-02-28T08:55:38.249Z,1014.26
2019-02-28T08:56:51.869Z,1014.24
2019-02-28T08:58:05.946Z,1014.22
2019-02-28T08:59:19.593Z,1014.22
2019-02-28T09:00:33.124Z,1014.2
2019-02-28T09:01:45.298Z,1014.24
2019-02-28T09:02:55.240Z,1014.24
2019-02-28T09:04:05.914Z,1014.27
2019-02-28T09:05:15.604Z,1014.28
2019-02-28T09:06:32.967Z,1014.33
2019-02-28T09:07:51.154Z,1014.37
2019-02-28T09:09:03.452Z,1014.43
2019-02-28T09:10:15.175Z,1014.45
2019-02-28T09:11:25.124Z,1014.49
2019-02-28T09:12:34.810Z,1014.5
2019-02-28T09:13:44.751Z,1014.49
2019-02-28T09:14:55.199Z,1014.5
2019-02-28T09:16:06.012Z,1014.55
2019-02-28T09:17:18.534Z,1014.56
2019-02-28T09:18:28.547Z,1014.55
2019-02-28T09:19:38.492Z,1014.5
2019-02-28T09:20:48.183Z,1014.49
2019-02-28T09:21:57.614Z,1014.46
2019-02-28T09:23:07.546Z,1014.37
2019-02-28T09:24:17.489Z,1014.33
2019-02-28T09:25:53.302Z,1014.35
2019-02-28T09:27:06.465Z,1014.26
2019-02-28T09:28:17.539Z,1014.21
2019-02-28T09:29:28.260Z,1014.19
2019-02-28T09:30:38.198Z,1014.25
2019-02-28T09:31:47.888Z,1014.24
2019-02-28T09:32:58.830Z,1014.27
2019-02-28T09:34:09.315Z,1014.32
2019-02-28T09:35:19.332Z,1014.28
2019-02-28T09:36:28.795Z,1014.34
2019-02-28T09:37:38.490Z,1014.3
2019-02-28T09:38:56.789Z,1014.34
2019-02-28T09:40:07.309Z,1014.28
2019-02-28T09:41:18.949Z,1014.26
2019-02-28T09:42:28.761Z,1014.3
2019-02-28T09:43:38.451Z,1014.27
2019-02-28T09:44:48.147Z,1014.17
2019-02-28T09:45:57.588Z,1014.22
2019-02-28T09:47:11.615Z,1014.19
2019-02-28T09:48:23.598Z,1014.27
2019-02-28T09:49:37.103Z,1014.25
2019-02-28T09:50:57.715Z,1014.29
2019-02-28T09:52:07.851Z,1014.34
2019-02-28T09:53:17.046Z,1014.36
2019-02-28T09:54:26.736Z,1014.48
2019-02-28T09:55:36.184Z,1014.49
2019-02-28T09:56:47.246Z,1014.51
2019-02-28T09:57:57.574Z,1014.49
2019-02-28T09:59:07.308Z,1014.44
2019-02-28T10:00:16.748Z,1014.41
2019-02-28T10:01:28.088Z,1014.42
2019-02-28T10:02:40.389Z,1014.43
2019-02-28T10:03:55.309Z,1014.52
2019-02-28T10:05:06.441Z,1014.56
2019-02-28T10:06:19.334Z,1014.6
2019-02-28T10:07:28.786Z,1014.71
2019-02-28T10:08:38.474Z,1014.69
2019-02-28T10:09:49.261Z,1014.7
2019-02-28T10:10:59.252Z,1014.72
2019-02-28T10:12:10.922Z,1014.67
2019-02-28T10:13:21.010Z,1014.74
2019-02-28T10:14:31.634Z,1014.78
2019-02-28T10:15:42.468Z,1014.76
2019-02-28T10:16:53.321Z,1014.79
2019-02-28T10:18:04.083Z,1014.86
2019-02-28T10:19:14.314Z,1014.92
2019-02-28T10:20:26.906Z,1014.92
2019-02-28T10:21:39.477Z,1014.99
2019-02-28T10:22:54.980Z,1014.98
2019-02-28T10:24:04.684Z,1014.94
2019-02-28T10:25:14.367Z,1014.97
2019-02-28T10:26:24.355Z,1014.95
2019-02-28T10:27:34.292Z,1014.92
2019-02-28T10:28:43.730Z,1014.91
2019-02-28T10:29:53.439Z,1014.93
2019-02-28T10:31:03.411Z,1014.93
2019-02-28T10:32:13.342Z,1014.97
2019-02-28T10:33:23.042Z,1014.96
2019-02-28T10:34:32.487Z,1014.94
2019-02-28T10:35:43.092Z,1014.97
2019-02-28T10:36:52.802Z,1014.92
2019-02-28T10:38:04.790Z,1014.91
2019-02-28T10:39:14.732Z,1014.92
2019-02-28T10:40:24.416Z,1014.89
2019-02-28T10:41:34.127Z,1014.93
2019-02-28T10:42:43.813Z,1014.91
2019-02-28T10:43:55.878Z,1014.88
2019-02-28T10:45:06.450Z,1014.86
2019-02-28T10:46:20.008Z,1014.88
2019-02-28T10:47:29.879Z,1014.91
2019-02-28T10:48:50.395Z,1014.89
2019-02-28T10:50:00.283Z,1014.9
2019-02-28T10:51:13.842Z,1014.9
2019-02-28T10:52:26.881Z,1014.85
2019-02-28T10:53:39.262Z,1014.78
2019-02-28T10:54:49.373Z,1014.73
2019-02-28T10:55:59.100Z,1014.65
2019-02-28T10:57:08.795Z,1014.65
2019-02-28T10:58:18.739Z,1014.59
2019-02-28T10:59:28.429Z,1014.62
2019-02-28T11:00:37.867Z,1014.59
2019-02-28T11:01:47.573Z,1014.63
2019-02-28T11:02:57.688Z,1014.65
2019-02-28T11:04:08.206Z,1014.64
2019-02-28T11:05:18.746Z,1014.66
2019-02-28T11:06:30.383Z,1014.73
2019-02-28T11:07:40.100Z,1014.77
2019-02-28T11:08:51.188Z,1014.78
2019-02-28T11:10:01.983Z,1014.8
2019-02-28T11:11:11.980Z,1014.78
2019-02-28T11:12:23.823Z,1014.78
2019-02-28T11:13:33.339Z,1014.78
2019-02-28T11:14:43.033Z,1014.73
2019-02-28T11:15:52.972Z,1014.71
2019-02-28T11:17:02.931Z,1014.66
2019-02-28T11:18:20.449Z,1014.68
2019-02-28T11:19:30.383Z,1014.67
2019-02-28T11:20:40.079Z,1014.66
2019-02-28T11:21:49.772Z,1014.71
2019-02-28T11:23:04.934Z,1014.73
2019-02-28T11:24:20.515Z,1014.78
2019-02-28T11:25:35.586Z,1014.84
2019-02-28T11:26:45.639Z,1014.81
2019-02-28T11:27:56.076Z,1014.84
2019-02-28T11:29:05.518Z,1014.82
2019-02-28T11:30:15.211Z,1014.8
2019-02-28T11:31:25.788Z,1014.87
2019-02-28T11:32:35.595Z,1014.86
2019-02-28T11:33:44.779Z,1014.91
2019-02-28T11:34:54.715Z,1014.84
2019-02-28T11:36:04.153Z,1014.91
2019-02-28T11:37:15.108Z,1014.92
2019-02-28T11:38:24.797Z,1014.89
2019-02-28T11:39:34.498Z,1014.88
2019-02-28T11:40:44.583Z,1014.88
2019-02-28T11:42:02.194Z,1014.89
2019-02-28T11:43:11.403Z,1014.9
2019-02-28T11:44:21.404Z,1014.86
2019-02-28T11:45:31.144Z,1014.83
2019-02-28T11:46:41.083Z,1014.86
2019-02-28T11:47:51.020Z,1014.87
2019-02-28T11:49:00.481Z,1014.89
2019-02-28T11:50:10.416Z,1014.87
2019-02-28T11:51:20.362Z,1014.82
2019-02-28T11:52:30.862Z,1014.76
2019-02-28T11:53:40.808Z,1014.72
2019-02-28T11:54:50.745Z,1014.67
2019-02-28T11:56:00.272Z,1014.63
2019-02-28T11:57:10.226Z,1014.61
2019-02-28T11:58:21.183Z,1014.57
2019-02-28T11:59:33.054Z,1014.56
2019-02-28T12:00:43.001Z,1014.57
2019-02-28T12:01:52.689Z,1014.62
2019-02-28T12:03:02.402Z,1014.63
2019-02-28T12:04:13.466Z,1014.64
2019-02-28T12:05:23.157Z,1014.59
2019-02-28T12:06:33.114Z,1014.54
2019-02-28T12:07:42.809Z,1014.53
2019-02-28T12:08:52.256Z,1014.5
2019-02-28T12:10:01.949Z,1014.53
2019-02-28T12:11:11.640Z,1014.49
2019-02-28T12:12:21.323Z,1014.42
2019-02-28T12:13:31.009Z,1014.42
2019-02-28T12:14:40.712Z,1014.45
2019-02-28T12:15:50.423Z,1014.43
2019-02-28T12:17:00.390Z,1014.47
2019-02-28T12:18:10.082Z,1014.39
2019-02-28T12:19:19.772Z,1014.41
2019-02-28T12:20:31.048Z,1014.33
2019-02-28T12:21:40.772Z,1014.29
2019-02-28T12:22:50.204Z,1014.27
2019-02-28T12:24:00.660Z,1014.33
2019-02-28T12:25:10.405Z,1014.35
2019-02-28T12:26:21.092Z,1014.39
2019-02-28T12:27:30.590Z,1014.37
2019-02-28T12:28:40.292Z,1014.4
2019-02-28T12:29:50.269Z,1014.44
2019-02-28T12:31:00.221Z,1014.49
2019-02-28T12:32:11.240Z,1014.48
2019-02-28T12:33:23.213Z,1014.44
2019-02-28T12:34:33.140Z,1014.46
2019-02-28T12:35:42.830Z,1014.42
2019-02-28T12:36:52.270Z,1014.4
2019-02-28T12:38:02.581Z,1014.38
2019-02-28T12:39:12.530Z,1014.4
2019-02-28T12:40:24.166Z,1014.43
2019-02-28T12:41:33.883Z,1014.41
2019-02-28T12:42:45.391Z,1014.36
2019-02-28T12:43:54.827Z,1014.42
2019-02-28T12:45:04.776Z,1014.42
2019-02-28T12:46:14.743Z,1014.49
2019-02-28T12:47:24.192Z,1014.52
2019-02-28T12:48:34.469Z,1014.53
2019-02-28T12:49:48.441Z,1014.49
2019-02-28T12:51:02.235Z,1014.46
2019-02-28T12:52:15.537Z,1014.46
2019-02-28T12:53:25.573Z,1014.46
2019-02-28T12:54:35.519Z,1014.45
2019-02-28T12:55:45.469Z,1014.43
2019-02-28T12:56:55.408Z,1014.45
2019-02-28T12:58:05.110Z,1014.52
2019-02-28T12:59:14.799Z,1014.52
2019-02-28T13:00:24.510Z,1014.61
2019-02-28T13:01:34.350Z,1014.66
2019-02-28T13:02:44.471Z,1014.58
2019-02-28T13:04:00.170Z,1014.53
2019-02-28T13:05:14.751Z,1014.5
2019-02-28T13:06:25.755Z,1014.4
2019-02-28T13:07:35.700Z,1014.37
2019-02-28T13:08:45.400Z,1014.32
2019-02-28T13:09:56.111Z,1014.31
2019-02-28T13:11:06.936Z,1014.29
2019-02-28T13:12:16.925Z,1014.33
2019-02-28T13:13:28.743Z,1014.32
2019-02-28T13:14:40.563Z,1014.32
2019-02-28T13:15:51.367Z,1014.3
2019-02-28T13:17:01.336Z,1014.31
2019-02-28T13:18:11.291Z,1014.31
2019-02-28T13:19:21.259Z,1014.38
2019-02-28T13:20:33.460Z,1014.36
2019-02-28T13:21:46.761Z,1014.36
2019-02-28T13:22:59.243Z,1014.39
2019-02-28T13:24:10.871Z,1014.38
2019-02-28T13:25:23.294Z,1014.41
2019-02-28T13:26:34.348Z,1014.4
2019-02-28T13:27:45.122Z,1014.37
2019-02-28T13:28:57.292Z,1014.34
2019-02-28T13:30:11.719Z,1014.33
2019-02-28T13:31:25.490Z,1014.33
2019-02-28T13:32:39.204Z,1014.31
2019-02-28T13:33:52.497Z,1014.29
2019-02-28T13:35:07.281Z,1014.3
2019-02-28T13:36:21.581Z,1014.3
2019-02-28T13:37:31.876Z,1014.27
2019-02-28T13:38:45.415Z,1014.25
2019-02-28T13:40:04.222Z,1014.25
2019-02-28T13:41:18.255Z,1014.25
2019-02-28T13:42:36.056Z,1014.29
2019-02-28T13:43:49.844Z,1014.27
2019-02-28T13:45:05.040Z,1014.22
2019-02-28T13:46:32.186Z,1014.23
2019-02-28T13:47:46.096Z,1014.25
2019-02-28T13:48:56.470Z,1014.29
2019-02-28T13:50:09.116Z,1014.23
2019-02-28T13:51:25.624Z,1014.23
2019-02-28T13:52:42.683Z,1014.23
2019-02-28T13:53:55.334Z,1014.24
2019-02-28T13:55:14.176Z,1014.27
2019-02-28T13:56:28.964Z,1014.2
2019-02-28T13:57:43.387Z,1014.2
2019-02-28T13:58:57.175Z,1014.23
2019-02-28T14:00:08.876Z,1014.24
2019-02-28T14:01:20.241Z,1014.29
2019-02-28T14:02:33.529Z,1014.27
2019-02-28T14:03:45.913Z,1014.21
2019-02-28T14:04:58.645Z,1014.26
2019-02-28T14:06:18.682Z,1014.25
2019-02-28T14:07:30.050Z,1014.23
2019-02-28T14:08:41.972Z,1014.2
2019-02-28T14:09:58.082Z,1014.3
2019-02-28T14:11:10.075Z,1014.21
2019-02-28T14:12:21.725Z,1014.22
2019-02-28T14:13:34.858Z,1014.23
2019-02-28T14:14:44.947Z,1014.26
2019-02-28T14:15:54.921Z,1014.25
2019-02-28T14:17:04.933Z,1014.28
2019-02-28T14:18:14.651Z,1014.27
2019-02-28T14:19:24.355Z,1014.28
2019-02-28T14:20:34.054Z,1014.25
2019-02-28T14:21:43.764Z,1014.26
2019-02-28T14:22:53.543Z,1014.23
2019-02-28T14:24:03.309Z,1014.22
2019-02-28T14:25:13.022Z,1014.24
2019-02-28T14:26:22.231Z,1014.21